Time;durP1;ratioP1;P1;durP2;ratioP2;P2;SDS_P1;SDS_P2;PMS_P1;PMS_P2;Temp;Humidity;BMP_temperature;BMP_pressure;BME280_temperature;BME280_humidity;BME280_pressure;Samples;Min_cycle;Max_cycle;Signal;HPM_P1;HPM_P2
2022/08/04 00:02:03;;;;;;;2.58;2.00;;;;;;;19.72;81.13;97521.72;18504273;32;20056;-62
2022/08/04 00:12:09;;;;;;;2.45;2.15;;;;;;;19.60;82.16;97527.94;18504376;32;20105;-62
2022/08/04 00:22:12;;;;;;;2.20;2.00;;;;;;;19.49;82.03;97522.03;18503712;32;20412;-62
2022/08/04 00:32:17;;;;;;;3.45;1.60;;;;;;;19.36;82.93;97512.12;18502805;32;20052;-62
2022/08/04 00:42:36;;;;;;;4.43;1.95;;;;;;;19.20;82.72;97520.91;18502284;32;20091;-61
2022/08/04 00:53:17;;;;;;;2.75;1.95;;;;;;;19.00;83.31;97524.41;18501953;32;20405;-62
2022/08/04 01:03:55;;;;;;;4.07;1.98;;;;;;;18.85;83.79;97515.53;18486735;32;20045;-62
2022/08/04 01:14:15;;;;;;;2.67;2.15;;;;;;;18.75;84.44;97524.13;18499978;32;20441;-62
2022/08/04 01:24:29;;;;;;;2.50;2.20;;;;;;;18.66;84.98;97517.88;18485540;32;20125;-62
2022/08/04 01:34:50;;;;;;;2.62;2.00;;;;;;;18.55;85.48;97525.63;18499300;32;20054;-62
2022/08/04 01:44:55;;;;;;;2.17;1.83;;;;;;;18.50;86.61;97543.06;18497820;32;20089;-62
2022/08/04 01:55:00;;;;;;;3.00;2.10;;;;;;;18.40;87.32;97540.63;18498190;32;20059;-62
2022/08/04 02:05:02;;;;;;;2.75;2.25;;;;;;;18.33;87.34;97521.19;18444307;32;20121;-62
2022/08/04 02:15:35;;;;;;;3.35;2.47;;;;;;;18.16;88.17;97527.47;18432507;32;20369;-62
2022/08/04 02:25:46;;;;;;;3.40;2.12;;;;;;;18.10;88.90;97537.75;18431767;32;20054;-62
2022/08/04 02:35:56;;;;;;;4.50;1.90;;;;;;;18.06;88.70;97534.88;18431557;32;20041;-62
2022/08/04 02:46:05;;;;;;;2.50;2.03;;;;;;;18.02;88.50;97533.09;18431275;32;20087;-62
2022/08/04 02:56:21;;;;;;;2.72;1.75;;;;;;;17.97;88.52;97530.56;18436221;32;20045;-62
2022/08/04 03:07:00;;;;;;;2.87;2.08;;;;;;;17.95;88.83;97528.09;18494932;32;20053;-62
2022/08/04 03:17:45;;;;;;;2.47;1.90;;;;;;;17.85;89.48;97521.00;18494767;32;20075;-63
2022/08/04 03:28:17;;;;;;;2.37;1.90;;;;;;;17.72;90.12;97522.78;18480165;32;20083;-62
2022/08/04 03:38:49;;;;;;;2.55;2.00;;;;;;;17.58;90.42;97525.66;18496901;32;20045;-62
2022/08/04 03:49:35;;;;;;;2.62;2.08;;;;;;;17.46;90.88;97522.75;18505880;32;20053;-62
2022/08/04 03:59:59;;;;;;;2.42;2.03;;;;;;;17.37;91.20;97528.19;18490390;32;20057;-62
2022/08/04 04:10:33;;;;;;;2.57;1.83;;;;;;;17.29;91.76;97539.91;18490370;32;20060;-62
2022/08/04 04:21:05;;;;;;;2.47;2.17;;;;;;;17.11;91.91;97539.81;18503883;32;20052;-62
2022/08/04 04:31:18;;;;;;;3.12;2.10;;;;;;;17.04;92.20;97549.63;18503245;32;20128;-62
2022/08/04 04:41:45;;;;;;;3.78;1.95;;;;;;;16.96;92.33;97553.91;18502692;32;20120;-62
2022/08/04 04:51:54;;;;;;;2.65;2.20;;;;;;;17.05;92.97;97557.50;18488499;32;20393;-62
2022/08/04 05:02:15;;;;;;;3.95;2.28;;;;;;;17.21;92.22;97566.09;18500088;32;20046;-62
2022/08/04 05:13:00;;;;;;;3.85;2.28;;;;;;;17.43;91.79;97567.09;18486509;32;20124;-62
2022/08/04 05:23:26;;;;;;;5.80;2.03;;;;;;;17.74;91.38;97579.88;18499720;32;20433;-62
2022/08/04 05:33:42;;;;;;;2.78;1.83;;;;;;;18.13;90.44;97589.12;18485168;32;20068;-62
2022/08/04 05:43:46;;;;;;;2.65;1.95;;;;;;;18.54;88.68;97587.81;18484963;32;20037;-62
2022/08/04 05:53:54;;;;;;;2.50;2.15;;;;;;;18.96;87.18;97593.53;18498217;32;20076;-62
2022/08/04 06:04:00;;;;;;;3.00;1.85;;;;;;;19.40;85.55;97590.63;18496794;32;20054;-62
2022/08/04 06:14:14;;;;;;;3.70;2.00;;;;;;;19.89;83.62;97603.13;18496972;32;20104;-62
2022/08/04 06:24:24;;;;;;;2.40;2.20;;;;;;;20.40;81.58;97597.56;18496523;32;20049;-62
2022/08/04 06:34:32;;;;;;;2.85;2.53;;;;;;;20.96;81.05;97603.50;18496196;32;20087;-62
2022/08/04 06:44:39;;;;;;;3.37;2.60;;;;;;;21.52;77.38;97602.19;18495895;32;20097;-62
2022/08/04 06:54:50;;;;;;;2.45;2.15;;;;;;;22.23;73.26;97613.84;18481633;32;20090;-63
2022/08/04 07:04:55;;;;;;;2.70;1.92;;;;;;;22.90;69.46;97624.41;18494664;32;20054;-62
2022/08/04 07:15:02;;;;;;;2.37;2.17;;;;;;;23.52;68.69;97621.25;18499737;32;20053;-62
2022/08/04 07:25:09;;;;;;;2.53;2.20;;;;;;;24.11;67.04;97619.50;18507088;32;20384;-62
2022/08/04 07:35:16;;;;;;;3.08;2.30;;;;;;;24.74;64.01;97630.69;18506942;32;20052;-62
2022/08/04 07:45:42;;;;;;;3.95;2.25;;;;;;;25.44;61.40;97623.28;18506061;32;20045;-62
2022/08/04 07:55:49;;;;;;;3.50;2.50;;;;;;;26.13;61.31;97628.69;18505073;32;20361;-63
2022/08/04 08:05:56;;;;;;;3.62;2.08;;;;;;;26.81;60.01;97633.56;18490850;32;20140;-63
2022/08/04 08:16:50;;;;;;;4.45;2.75;;;;;;;27.46;55.92;97623.09;18302446;32;20065;-63
2022/08/04 08:27:04;;;;;;;3.87;2.40;;;;;;;28.03;53.01;97629.09;18301730;32;20088;-63
2022/08/04 08:37:35;;;;;;;3.37;2.15;;;;;;;28.62;50.32;97636.56;18175653;32;20134;-63
2022/08/04 08:48:10;;;;;;;2.55;2.12;;;;;;;29.18;49.84;97628.00;18225965;32;20132;-63
2022/08/04 08:58:32;;;;;;;4.20;2.33;;;;;;;29.68;46.65;97633.63;18360824;32;20085;-63
2022/08/04 09:08:59;;;;;;;2.92;2.33;;;;;;;30.17;44.84;97633.19;18402026;32;20049;-62
2022/08/04 09:19:17;;;;;;;6.03;1.80;;;;;;;30.54;44.56;97629.87;18500461;32;20561;-63
2022/08/04 09:29:45;;;;;;;3.65;1.77;;;;;;;30.93;40.76;97628.91;18485581;32;20097;-63
2022/08/04 09:40:07;;;;;;;1.87;1.70;;;;;;;31.39;41.38;97627.03;18498411;32;20446;-63
2022/08/04 09:50:57;;;;;;;4.12;2.08;;;;;;;31.81;43.03;97631.91;18498312;32;20081;-62
2022/08/04 10:01:19;;;;;;;2.03;1.65;;;;;;;32.09;38.86;97633.63;18283695;32;20133;-63
2022/08/04 10:11:53;;;;;;;1.58;1.12;;;;;;;32.39;37.80;97610.53;18295724;32;20104;-62
2022/08/04 10:22:17;;;;;;;2.62;1.50;;;;;;;32.80;34.04;97602.50;18295389;32;20070;-63
2022/08/04 10:32:47;;;;;;;2.35;1.60;;;;;;;33.16;34.98;97594.34;18327440;32;20076;-63
2022/08/04 10:43:01;;;;;;;1.62;1.37;;;;;;;33.57;34.75;97581.31;18430433;32;20405;-63
2022/08/04 10:53:19;;;;;;;5.18;1.33;;;;;;;33.92;34.30;97570.72;18442557;32;20071;-62
2022/08/04 11:03:50;;;;;;;3.33;1.27;;;;;;;33.99;30.41;97564.94;18477280;32;20070;-63
2022/08/04 11:14:10;;;;;;;1.10;0.98;;;;;;;34.38;33.29;97563.38;18495203;32;20045;-62
2022/08/04 11:24:18;;;;;;;1.98;1.30;;;;;;;34.87;31.94;97561.97;18494622;32;20176;-63
2022/08/04 11:34:51;;;;;;;1.42;1.15;;;;;;;35.23;31.27;97552.69;18494505;32;20407;-62
2022/08/04 11:45:05;;;;;;;1.60;1.23;;;;;;;35.71;29.31;97553.87;18479929;32;20046;-62
2022/08/04 11:55:10;;;;;;;1.52;1.05;;;;;;;35.86;26.93;97557.13;18493902;32;20071;-63
2022/08/04 12:05:37;;;;;;;2.87;1.62;;;;;;;36.21;30.00;97548.13;18502571;32;20089;-62
2022/08/04 12:15:57;;;;;;;;;;;;;;;36.51;29.26;97551.72;18505106;32;20092;-62
2022/08/04 12:26:22;;;;;;;1.50;1.30;;;;;;;36.40;27.11;97544.41;18504185;32;19956;-62
2022/08/04 12:36:28;;;;;;;1.33;1.20;;;;;;;36.92;25.53;97530.38;18502965;32;20338;-62
2022/08/04 12:46:35;;;;;;;2.28;1.30;;;;;;;36.74;29.08;97525.28;18502781;32;20056;-62
2022/08/04 12:56:44;;;;;;;2.45;1.50;;;;;;;37.18;25.06;97510.63;18501665;32;20045;-62
2022/08/04 13:07:15;;;;;;;1.30;1.20;;;;;;;37.53;25.12;97505.03;18487009;32;20053;-62
2022/08/04 13:17:23;;;;;;;1.20;1.10;;;;;;;38.08;26.51;97504.69;18498876;32;20136;-61
2022/08/04 13:27:52;;;;;;;1.40;1.20;;;;;;;38.40;24.19;97492.22;18499417;32;20101;-62
2022/08/04 13:38:28;;;;;;;1.10;0.93;;;;;;;38.89;25.33;97482.22;18499619;32;20075;-62
2022/08/04 13:48:37;;;;;;;2.20;1.33;;;;;;;39.22;25.47;97475.25;18485290;32;20071;-62
2022/08/04 13:58:46;;;;;;;1.92;1.52;;;;;;;39.50;24.90;97467.59;18484151;32;20041;-62
2022/08/04 14:09:11;;;;;;;1.33;1.10;;;;;;;39.73;25.84;97457.72;18483208;32;20079;-62
2022/08/04 14:19:19;;;;;;;1.40;1.30;;;;;;;40.42;22.91;97448.91;18497112;32;20064;-62
2022/08/04 14:29:24;;;;;;;1.30;1.17;;;;;;;40.43;22.96;97442.78;18496079;32;20093;-61
2022/08/04 14:50:37;;;;;;;1.92;1.42;;;;;;;41.10;23.16;97427.78;18294286;32;20146;-61
2022/08/04 15:00:41;;;;;;;1.83;1.20;;;;;;;41.05;19.12;97414.31;18265244;32;20058;-62
2022/08/04 15:10:45;;;;;;;1.87;1.65;;;;;;;40.34;19.86;97416.53;18230338;32;20062;-61
2022/08/04 15:20:57;;;;;;;3.60;1.60;;;;;;;38.94;19.72;97405.28;18275994;32;20112;-62
2022/08/04 15:31:03;;;;;;;2.08;1.70;;;;;;;38.21;23.00;97386.03;18430175;32;20077;-62
2022/08/04 15:41:32;;;;;;;1.90;1.65;;;;;;;37.95;25.11;97374.97;18439862;32;20087;-62
2022/08/04 15:52:16;;;;;;;2.08;1.87;;;;;;;37.70;22.80;97376.69;18451992;32;20396;-61
2022/08/04 16:02:32;;;;;;;1.62;1.52;;;;;;;37.29;24.52;97367.28;18480129;32;20075;-62
2022/08/04 16:12:57;;;;;;;2.35;1.70;;;;;;;36.47;28.08;97360.38;18503634;32;20067;-61
2022/08/04 16:34:30;;;;;;;;;;;;;;;;;;;;;
2022/08/04 16:45:07;;;;;;;2.25;1.60;;;;;;;35.61;29.13;97339.22;18502652;32;20128;-62
2022/08/04 17:06:23;;;;;;;1.55;1.45;;;;;;;33.58;39.39;97322.19;18497693;32;20056;-62
2022/08/04 17:16:34;;;;;;;2.87;1.70;;;;;;;33.03;45.51;97330.88;18486883;32;20046;-62
2022/08/04 17:26:38;;;;;;;1.80;1.70;;;;;;;32.50;46.24;97319.38;18500134;32;20048;-62
2022/08/04 17:36:43;;;;;;;2.37;1.48;;;;;;;31.77;49.36;97319.66;18499523;32;20053;-62
2022/08/04 17:46:51;;;;;;;1.75;1.65;;;;;;;31.15;52.04;97320.81;18498738;32;20442;-62
2022/08/04 17:57:15;;;;;;;2.20;1.47;;;;;;;30.58;53.35;97317.37;18498038;32;20063;-62
2022/08/04 18:07:42;;;;;;;1.62;1.52;;;;;;;29.99;52.61;97312.66;18497304;32;20335;-62
2022/08/04 18:18:19;;;;;;;2.10;1.60;;;;;;;29.58;53.21;97305.69;18483195;32;20060;-62
2022/08/04 18:28:25;;;;;;;8.23;6.07;;;;;;;29.24;52.16;97331.25;18496666;32;20060;-62
2022/08/04 18:38:34;;;;;;;2.30;2.10;;;;;;;29.02;52.00;97336.09;18496273;32;20045;-62
2022/08/04 18:49:01;;;;;;;2.62;2.10;;;;;;;28.78;46.70;97365.53;18496154;32;20345;-62
2022/08/04 18:59:06;;;;;;;2.08;1.48;;;;;;;27.98;46.31;97332.09;18494874;32;20038;-62
2022/08/04 19:09:23;;;;;;;2.15;1.67;;;;;;;27.64;49.66;97318.53;18499304;32;20147;-62
2022/08/04 19:19:46;;;;;;;3.55;3.25;;;;;;;27.33;55.70;97351.31;18507874;32;20045;-62
2022/08/04 19:29:53;;;;;;;2.75;2.12;;;;;;;26.93;53.49;97361.41;18480454;32;20057;-62
2022/08/04 19:40:07;;;;;;;2.45;2.12;;;;;;;26.75;50.44;97357.69;18506794;32;20110;-62
2022/08/04 19:50:11;;;;;;;2.10;1.90;;;;;;;26.64;51.66;97366.72;18506059;32;20440;-62
2022/08/04 20:00:16;;;;;;;2.20;1.80;;;;;;;26.57;52.17;97380.50;18478280;32;20057;-62
2022/08/04 20:10:40;;;;;;;1.77;1.60;;;;;;;26.51;50.91;97399.47;18490712;32;20079;-62
2022/08/04 20:20:58;;;;;;;2.15;1.80;;;;;;;26.53;50.37;97402.66;18503615;32;20056;-62
2022/08/04 20:31:15;;;;;;;3.45;2.00;;;;;;;26.48;51.60;97405.00;18502764;32;20448;-62
2022/08/04 20:41:24;;;;;;;2.85;2.40;;;;;;;26.46;50.58;97396.25;18488861;32;20053;-62
2022/08/04 20:51:44;;;;;;;3.75;2.03;;;;;;;26.30;49.94;97400.09;18502156;32;20048;-62
2022/08/04 21:01:55;;;;;;;3.08;2.40;;;;;;;25.93;52.48;97406.41;18501402;32;20098;-62
2022/08/04 21:12:06;;;;;;;2.55;2.12;;;;;;;25.42;56.33;97418.84;18501056;32;20053;-62
2022/08/04 21:22:30;;;;;;;3.08;2.50;;;;;;;25.01;57.55;97422.16;18500547;32;20413;-62
2022/08/04 21:32:36;;;;;;;4.35;2.30;;;;;;;24.68;62.17;97425.56;18498140;32;20432;-62
2022/08/04 21:42:40;;;;;;;3.00;1.92;;;;;;;24.33;62.64;97432.06;18499463;32;20101;-62
2022/08/04 21:58:24;;;;;;;2.30;1.92;;;;;;;24.13;62.14;97432.13;18473999;32;20078;-62
2022/08/04 22:08:35;;;;;;;2.67;2.20;;;;;;;24.13;62.14;97432.13;18385467;32;20099;-62
2022/08/04 22:18:39;;;;;;;2.28;1.52;;;;;;;23.27;65.22;97436.62;18411155;32;20073;-62
2022/08/04 22:28:42;;;;;;;2.20;2.00;;;;;;;22.95;65.36;97439.41;18410568;32;20053;-62
2022/08/04 22:38:47;;;;;;;2.97;1.95;;;;;;;22.66;65.72;97446.19;18410172;32;20443;-62
2022/08/04 22:49:06;;;;;;;2.10;1.90;;;;;;;22.47;65.53;97441.38;18409239;32;20050;-62
2022/08/04 22:59:09;;;;;;;2.00;1.80;;;;;;;22.21;65.96;97426.09;18409111;32;20100;-62
2022/08/04 23:09:12;;;;;;;1.60;1.50;;;;;;;22.00;68.29;97418.88;18367930;32;20094;-62
2022/08/04 23:19:18;;;;;;;3.67;1.67;;;;;;;21.83;68.70;97431.00;18365649;32;20394;-62
2022/08/04 23:29:25;;;;;;;1.80;1.70;;;;;;;21.70;68.30;97442.41;18365253;32;20062;-61
2022/08/04 23:39:28;;;;;;;;;;;;;;;21.65;69.30;97449.75;18351321;32;20505;-62
2022/08/04 23:49:50;;;;;;;2.50;1.85;;;;;;;21.60;69.77;97488.50;18349229;32;19967;-62
2022/08/04 23:59:58;;;;;;;2.05;1.77;;;;;;;21.61;70.26;97486.56;18363573;32;20069;-62
